createdAt,value
2023-09-10T00:00:07.571Z,100066.03
2023-09-10T00:01:09.886Z,100068.69
2023-09-10T00:02:12.285Z,100069.63
2023-09-10T00:03:15.280Z,100065.25
2023-09-10T00:04:17.289Z,100065.38
2023-09-10T00:05:19.206Z,100068.97
2023-09-10T00:06:20.984Z,100064.53
2023-09-10T00:07:23.143Z,100060.13
2023-09-10T00:08:24.980Z,100072.56
2023-09-10T00:09:26.780Z,100065.56
2023-09-10T00:10:29.039Z,100067.44
2023-09-10T00:11:30.996Z,100068.34
2023-09-10T00:12:33.068Z,100071.00
2023-09-10T00:13:36.137Z,100065.78
2023-09-10T00:14:37.957Z,100060.47
2023-09-10T00:15:40.547Z,100065.69
2023-09-10T00:16:43.409Z,100063.03
2023-09-10T00:17:45.427Z,100064.84
2023-09-10T00:18:47.328Z,100062.19
2023-09-10T00:19:49.209Z,100071.09
2023-09-10T00:20:54.506Z,100065.78
2023-09-10T00:21:56.400Z,100069.34
2023-09-10T00:22:58.562Z,100066.69
2023-09-10T00:24:00.486Z,100065.03
2023-09-10T00:25:02.394Z,100062.44
2023-09-10T00:26:04.416Z,100066.03
2023-09-10T00:27:06.627Z,100070.53
2023-09-10T00:28:08.628Z,100066.22
2023-09-10T00:29:10.471Z,100068.88
2023-09-10T00:30:12.962Z,100070.66
2023-09-10T00:31:15.051Z,100068.00
2023-09-10T00:32:17.019Z,100078.50
2023-09-10T00:33:19.292Z,100074.00
2023-09-10T00:34:21.281Z,100069.59
2023-09-10T00:35:23.297Z,100075.03
2023-09-10T00:36:25.161Z,100067.81
2023-09-10T00:37:27.187Z,100067.81
2023-09-10T00:38:29.163Z,100068.69
2023-09-10T00:39:31.055Z,100070.53
2023-09-10T00:42:00.088Z,100073.44
2023-09-10T00:43:02.593Z,100074.44
2023-09-10T00:44:05.015Z,100066.56
2023-09-10T00:45:08.977Z,100070.13
2023-09-10T00:46:10.745Z,100065.66
2023-09-10T00:47:12.981Z,100068.53
2023-09-10T00:48:15.035Z,100071.31
2023-09-10T00:49:16.966Z,100071.34
2023-09-10T00:50:19.151Z,100071.44
2023-09-10T00:51:21.602Z,100070.63
2023-09-10T00:52:24.423Z,100077.72
2023-09-10T00:53:27.244Z,100078.72
2023-09-10T00:54:33.364Z,100076.91
2023-09-10T00:55:36.301Z,100070.88
2023-09-10T00:56:38.584Z,100081.50
2023-09-10T00:57:40.963Z,100081.50
2023-09-10T00:58:43.554Z,100082.44
2023-09-10T00:59:45.956Z,100074.47
2023-09-10T01:00:48.929Z,100076.31
2023-09-10T01:01:51.399Z,100072.81
2023-09-10T01:02:53.750Z,100076.41
2023-09-10T01:03:56.054Z,100075.56
2023-09-10T01:04:57.905Z,100074.69
2023-09-10T01:06:00.451Z,100072.94
2023-09-10T01:07:03.949Z,100072.16
2023-09-10T01:08:06.473Z,100073.88
2023-09-10T01:09:09.094Z,100078.44
2023-09-10T01:10:11.420Z,100070.47
2023-09-10T01:11:49.829Z,100080.22
2023-09-10T01:13:24.232Z,100076.75
2023-09-10T01:14:42.370Z,100080.47
2023-09-10T01:15:59.105Z,100068.97
2023-09-10T01:17:09.338Z,100079.66
2023-09-10T01:18:22.154Z,100070.06
2023-09-10T01:19:51.532Z,100066.63
2023-09-10T01:21:02.151Z,100071.19
2023-09-10T01:22:15.199Z,100080.06
2023-09-10T01:23:27.366Z,100078.34
2023-09-10T01:25:04.621Z,100080.16
2023-09-10T01:26:06.629Z,100069.66
2023-09-10T01:27:08.442Z,100075.84
2023-09-10T01:28:10.278Z,100069.78
2023-09-10T01:29:18.566Z,100073.31
2023-09-10T01:30:20.718Z,100079.56
2023-09-10T01:31:22.737Z,100074.25
2023-09-10T01:32:32.802Z,100077.03
2023-09-10T01:33:39.652Z,100078.88
2023-09-10T01:34:50.888Z,100081.53
2023-09-10T01:36:13.190Z,100080.75
2023-09-10T01:37:23.989Z,100087.88
2023-09-10T01:38:30.093Z,100089.66
2023-09-10T01:39:38.653Z,100084.38
2023-09-10T01:40:59.844Z,100088.81
2023-09-10T01:42:01.928Z,100092.44
2023-09-10T01:43:07.236Z,100078.25
2023-09-10T01:44:09.842Z,100088.03
2023-09-10T01:45:12.373Z,100085.38
2023-09-10T01:46:15.435Z,100077.50
2023-09-10T01:47:18.114Z,100078.44
2023-09-10T01:48:20.492Z,100075.78
2023-09-10T01:49:22.937Z,100078.44
2023-09-10T01:50:24.833Z,100085.56
2023-09-10T01:51:26.707Z,100082.00
2023-09-10T01:52:28.525Z,100073.25
2023-09-10T01:53:30.413Z,100078.56
2023-09-10T01:54:32.333Z,100076.81
2023-09-10T01:55:34.179Z,100077.78
2023-09-10T01:56:36.009Z,100070.75
2023-09-10T01:57:37.847Z,100077.00
2023-09-10T01:58:39.962Z,100084.06
2023-09-10T01:59:42.258Z,100077.00
2023-09-10T02:00:45.234Z,100076.19
2023-09-10T02:01:47.200Z,100077.09
2023-09-10T02:02:49.859Z,100083.28
2023-09-10T02:03:52.085Z,100082.41
2023-09-10T02:04:54.149Z,100088.56
2023-09-10T02:05:56.017Z,100087.72
2023-09-10T02:06:57.957Z,100086.81
2023-09-10T02:08:00.091Z,100087.75
2023-09-10T02:09:02.025Z,100091.28
2023-09-10T02:10:04.572Z,100086.81
2023-09-10T02:11:06.654Z,100085.84
2023-09-10T02:12:09.003Z,100090.19
2023-09-10T02:13:10.999Z,100087.28
2023-09-10T02:14:12.933Z,100090.53
2023-09-10T02:15:15.000Z,100090.28
2023-09-10T02:16:16.911Z,100089.94
2023-09-10T02:17:18.811Z,100096.72
2023-09-10T02:18:20.869Z,100092.06
2023-09-10T02:19:23.020Z,100095.34
2023-09-10T02:20:24.916Z,100094.97
2023-09-10T02:21:26.760Z,100100.03
2023-09-10T02:22:28.667Z,100095.34
2023-09-10T02:23:30.590Z,100098.59
2023-09-10T02:24:32.385Z,100097.41
2023-09-10T02:25:34.442Z,100100.69
2023-09-10T02:26:36.417Z,100090.72
2023-09-10T02:27:38.357Z,100088.63
2023-09-10T02:28:40.794Z,100099.00
2023-09-10T02:29:43.269Z,100099.53
2023-09-10T02:30:45.085Z,100098.44
2023-09-10T02:31:46.934Z,100093.72
2023-09-10T02:32:48.869Z,100093.50
2023-09-10T02:33:50.901Z,100095.97
2023-09-10T02:34:55.499Z,100099.44
2023-09-10T02:35:57.433Z,100101.03
2023-09-10T02:37:00.959Z,100091.84
2023-09-10T02:38:03.878Z,100090.66
2023-09-10T02:39:05.933Z,100095.47
2023-09-10T02:40:09.442Z,100100.47
2023-09-10T02:41:11.959Z,100099.25
2023-09-10T02:42:13.898Z,100110.78
2023-09-10T02:43:15.674Z,100108.03
2023-09-10T02:44:17.650Z,100114.31
2023-09-10T02:45:19.610Z,100100.50
2023-09-10T02:46:21.504Z,100110.50
2023-09-10T02:47:23.357Z,100102.16
2023-09-10T02:48:25.249Z,100103.53
2023-09-10T02:49:27.113Z,100102.19
2023-09-10T02:50:29.168Z,100101.56
2023-09-10T02:51:31.038Z,100104.66
2023-09-10T02:52:32.967Z,100108.13
2023-09-10T02:53:34.787Z,100111.50
2023-09-10T02:54:37.671Z,100103.06
2023-09-10T02:55:39.571Z,100105.56
2023-09-10T02:56:41.435Z,100111.56
2023-09-10T02:57:43.262Z,100111.50
2023-09-10T02:58:45.185Z,100116.09
2023-09-10T02:59:47.074Z,100113.88
2023-09-10T03:00:48.956Z,100114.28
2023-09-10T03:01:50.922Z,100114.63
2023-09-10T03:02:59.218Z,100122.22
2023-09-10T03:04:01.117Z,100113.22
2023-09-10T03:05:03.134Z,100113.81
2023-09-10T03:06:13.041Z,100122.16
2023-09-10T03:07:14.994Z,100109.44
2023-09-10T03:08:16.901Z,100119.88
2023-09-10T03:09:19.134Z,100118.47
2023-09-10T03:10:21.136Z,100124.53
2023-09-10T03:11:22.978Z,100114.47
2023-09-10T03:12:26.366Z,100120.28
2023-09-10T03:13:28.318Z,100121.53
2023-09-10T03:14:30.137Z,100123.91
2023-09-10T03:15:32.064Z,100127.22
2023-09-10T03:16:40.466Z,100126.31
2023-09-10T03:17:42.444Z,100122.03
2023-09-10T03:18:46.099Z,100123.00
2023-09-10T03:19:48.299Z,100136.38
2023-09-10T03:20:50.162Z,100129.19
2023-09-10T03:21:52.022Z,100130.75
2023-09-10T03:22:59.304Z,100134.16
2023-09-10T03:24:01.286Z,100113.94
2023-09-10T03:25:03.465Z,100128.59
2023-09-10T03:26:05.379Z,100122.19
2023-09-10T03:27:07.377Z,100121.84
2023-09-10T03:28:09.198Z,100129.75
2023-09-10T03:29:11.275Z,100130.72
2023-09-10T03:30:13.962Z,100132.25
2023-09-10T03:31:15.932Z,100134.78
2023-09-10T03:32:20.441Z,100135.22
2023-09-10T03:33:22.743Z,100129.16
2023-09-10T03:34:24.703Z,100126.31
2023-09-10T03:35:27.081Z,100133.03
2023-09-10T03:36:29.597Z,100135.81
2023-09-10T03:37:31.478Z,100130.03
2023-09-10T03:38:33.558Z,100129.28
2023-09-10T03:39:35.575Z,100129.44
2023-09-10T03:40:37.528Z,100132.38
2023-09-10T03:41:39.709Z,100136.38
2023-09-10T03:42:41.673Z,100130.94
2023-09-10T03:43:43.725Z,100137.59
2023-09-10T03:44:45.630Z,100136.31
2023-09-10T03:45:47.583Z,100145.91
2023-09-10T03:46:49.603Z,100139.63
2023-09-10T03:47:51.621Z,100139.44
2023-09-10T03:48:53.539Z,100141.78
2023-09-10T03:49:55.393Z,100149.63
2023-09-10T03:50:57.314Z,100143.94
2023-09-10T03:51:59.342Z,100142.22
2023-09-10T03:53:01.359Z,100143.19
2023-09-10T03:54:03.487Z,100136.38
2023-09-10T03:55:05.952Z,100140.47
2023-09-10T03:56:08.292Z,100144.09
2023-09-10T03:57:10.343Z,100139.72
2023-09-10T03:58:12.177Z,100145.13
2023-09-10T03:59:14.145Z,100129.56
2023-09-10T04:00:16.340Z,100139.38
2023-09-10T04:01:18.290Z,100137.31
2023-09-10T04:02:20.798Z,100135.50
2023-09-10T04:03:23.110Z,100140.03
2023-09-10T04:04:25.194Z,100135.91
2023-09-10T04:05:27.332Z,100127.63
2023-09-10T04:06:29.196Z,100134.97
2023-09-10T04:07:31.338Z,100134.09
2023-09-10T04:08:33.175Z,100138.84
2023-09-10T04:09:35.031Z,100134.84
2023-09-10T04:10:36.955Z,100139.94
2023-09-10T04:11:38.963Z,100136.97
2023-09-10T04:12:40.834Z,100140.31
2023-09-10T04:13:43.013Z,100140.91
2023-09-10T04:14:45.210Z,100143.75
2023-09-10T04:15:47.188Z,100129.25
2023-09-10T04:16:49.093Z,100134.72
2023-09-10T04:17:51.043Z,100135.88
2023-09-10T04:18:52.888Z,100143.53
2023-09-10T04:19:54.779Z,100138.88
2023-09-10T04:20:56.664Z,100129.38
2023-09-10T04:21:58.646Z,100140.19
2023-09-10T04:23:00.521Z,100140.25
2023-09-10T04:24:02.422Z,100146.09
2023-09-10T04:25:04.659Z,100140.25
2023-09-10T04:26:06.899Z,100141.28
2023-09-10T04:27:08.899Z,100140.50
2023-09-10T04:28:10.782Z,100143.78
2023-09-10T04:29:12.581Z,100146.69
2023-09-10T04:30:14.587Z,100144.31
2023-09-10T04:31:18.207Z,100143.16
2023-09-10T04:32:20.148Z,100148.44
2023-09-10T04:33:22.026Z,100147.09
2023-09-10T04:34:24.072Z,100136.22
2023-09-10T04:35:25.880Z,100135.06
2023-09-10T04:36:27.669Z,100142.94
2023-09-10T04:37:30.074Z,100141.44
2023-09-10T04:38:31.954Z,100138.25
2023-09-10T04:39:33.804Z,100137.59
2023-09-10T04:40:35.667Z,100143.81
2023-09-10T04:41:37.993Z,100135.31
2023-09-10T04:42:40.002Z,100140.19
2023-09-10T04:43:41.841Z,100137.22
2023-09-10T04:44:43.705Z,100144.59
2023-09-10T04:45:45.582Z,100136.25
2023-09-10T04:46:47.710Z,100138.28
2023-09-10T04:47:49.674Z,100136.06
2023-09-10T04:48:51.720Z,100138.66
2023-09-10T04:49:53.631Z,100134.75
2023-09-10T04:50:55.515Z,100133.78
2023-09-10T04:51:57.464Z,100132.25
2023-09-10T04:53:02.907Z,100137.81
2023-09-10T04:54:05.047Z,100133.59
2023-09-10T04:55:07.331Z,100133.78
2023-09-10T04:56:09.519Z,100125.34
2023-09-10T04:57:11.661Z,100130.31
2023-09-10T04:58:13.703Z,100126.50
2023-09-10T04:59:15.693Z,100128.78
2023-09-10T05:00:17.700Z,100131.00
2023-09-10T05:01:19.713Z,100136.09
2023-09-10T05:02:21.806Z,100132.63
2023-09-10T05:03:23.912Z,100137.22
2023-09-10T05:04:25.973Z,100124.59
2023-09-10T05:05:27.997Z,100129.09
2023-09-10T05:06:29.806Z,100135.28
2023-09-10T05:07:31.705Z,100127.81
2023-09-10T05:08:33.647Z,100133.19
2023-09-10T05:09:35.645Z,100127.88
2023-09-10T05:10:38.940Z,100130.75
2023-09-10T05:11:40.944Z,100125.19
2023-09-10T05:12:43.917Z,100136.38
2023-09-10T05:13:45.936Z,100136.78
2023-09-10T05:14:47.950Z,100128.53
2023-09-10T05:15:50.266Z,100136.19
2023-09-10T05:16:52.276Z,100135.22
2023-09-10T05:17:54.237Z,100132.94
2023-09-10T05:18:56.230Z,100121.97
2023-09-10T05:19:58.304Z,100131.16
2023-09-10T05:21:00.311Z,100128.25
2023-09-10T05:22:02.227Z,100130.06
2023-09-10T05:23:04.286Z,100130.06
2023-09-10T05:24:08.567Z,100130.44
2023-09-10T05:25:10.634Z,100130.97
2023-09-10T05:26:12.681Z,100122.72
2023-09-10T05:27:14.590Z,100133.03
2023-09-10T05:28:16.825Z,100132.47
2023-09-10T05:29:18.678Z,100128.31
2023-09-10T05:30:20.763Z,100124.16
2023-09-10T05:31:22.645Z,100123.75
2023-09-10T05:32:24.763Z,100129.13
2023-09-10T05:33:26.872Z,100131.28
2023-09-10T05:34:28.698Z,100126.56
2023-09-10T05:35:30.670Z,100126.22
2023-09-10T05:36:32.763Z,100132.16
2023-09-10T05:37:34.650Z,100126.78
2023-09-10T05:38:36.548Z,100121.75
2023-09-10T05:39:38.454Z,100127.44
2023-09-10T05:40:40.458Z,100131.00
2023-09-10T05:41:42.874Z,100123.25
2023-09-10T05:42:45.923Z,100117.25
2023-09-10T05:43:47.883Z,100133.28
2023-09-10T05:44:56.181Z,100131.53
2023-09-10T05:45:58.519Z,100138.53
2023-09-10T05:47:00.570Z,100131.03
2023-09-10T05:48:02.694Z,100133.06
2023-09-10T05:49:04.635Z,100134.22
2023-09-10T05:50:06.939Z,100140.56
2023-09-10T05:51:08.853Z,100130.53
2023-09-10T05:52:11.041Z,100125.94
2023-09-10T05:53:12.995Z,100128.97
2023-09-10T05:54:17.522Z,100126.59
2023-09-10T05:55:19.762Z,100134.75
2023-09-10T05:56:21.789Z,100127.84
2023-09-10T05:57:23.948Z,100122.28
2023-09-10T05:58:26.944Z,100112.38
2023-09-10T05:59:28.802Z,100133.66
2023-09-10T06:00:30.682Z,100126.78
2023-09-10T06:01:32.540Z,100126.06
2023-09-10T06:02:35.068Z,100127.47
2023-09-10T06:03:37.317Z,100128.97
2023-09-10T06:04:39.405Z,100118.22
2023-09-10T06:05:41.326Z,100121.91
2023-09-10T06:06:43.256Z,100117.16
2023-09-10T06:07:45.810Z,100119.22
2023-09-10T06:08:47.865Z,100121.91
2023-09-10T06:09:49.633Z,100117.81
2023-09-10T06:10:51.490Z,100130.06
2023-09-10T06:11:53.538Z,100130.50
2023-09-10T06:12:55.322Z,100122.22
2023-09-10T06:13:57.310Z,100118.44
2023-09-10T06:14:59.213Z,100126.63
2023-09-10T06:16:01.654Z,100125.75
2023-09-10T06:17:04.177Z,100122.28
2023-09-10T06:18:06.249Z,100124.66
2023-09-10T06:19:08.166Z,100118.94
2023-09-10T06:20:10.715Z,100121.38
2023-09-10T06:21:12.619Z,100112.75
2023-09-10T06:22:14.438Z,100123.69
2023-09-10T06:23:16.616Z,100121.66
2023-09-10T06:24:18.689Z,100123.13
2023-09-10T06:25:20.863Z,100118.81
2023-09-10T06:26:22.963Z,100118.50
2023-09-10T06:27:24.753Z,100105.94
2023-09-10T06:28:27.265Z,100108.91
2023-09-10T06:29:29.177Z,100118.56
2023-09-10T06:30:31.092Z,100113.41
2023-09-10T06:31:32.937Z,100115.31
2023-09-10T06:32:34.981Z,100127.41
2023-09-10T06:33:36.914Z,100109.41
2023-09-10T06:34:38.781Z,100116.09
2023-09-10T06:35:40.717Z,100125.66
2023-09-10T06:36:42.551Z,100120.75
2023-09-10T06:37:45.335Z,100118.53
2023-09-10T06:38:49.255Z,100112.19
2023-09-10T06:39:51.431Z,100117.47
2023-09-10T06:40:53.539Z,100117.34
2023-09-10T06:41:56.055Z,100115.44
2023-09-10T06:42:57.856Z,100113.53
2023-09-10T06:43:59.691Z,100124.75
2023-09-10T06:45:01.636Z,100112.94
2023-09-10T06:46:04.617Z,100121.09
2023-09-10T06:47:06.806Z,100116.38
2023-09-10T06:48:08.661Z,100108.31
2023-09-10T06:49:10.635Z,100112.75
2023-09-10T06:50:12.734Z,100115.09
2023-09-10T06:51:14.678Z,100111.56
2023-09-10T06:52:16.609Z,100124.78
2023-09-10T06:53:18.528Z,100118.56
2023-09-10T06:54:20.494Z,100122.09
2023-09-10T06:55:22.436Z,100113.06
2023-09-10T06:56:26.408Z,100112.00
2023-09-10T06:57:30.764Z,100118.16
2023-09-10T06:58:32.746Z,100105.13
2023-09-10T06:59:34.937Z,100111.16
2023-09-10T07:00:36.759Z,100111.91
2023-09-10T07:01:41.719Z,100117.09
2023-09-10T07:02:43.637Z,100125.69
2023-09-10T07:03:47.139Z,100120.97
2023-09-10T07:04:49.162Z,100117.09
2023-09-10T07:05:51.129Z,100115.63
2023-09-10T07:06:54.249Z,100114.44
2023-09-10T07:07:56.194Z,100120.16
2023-09-10T07:08:57.990Z,100123.19
2023-09-10T07:10:00.019Z,100115.66
2023-09-10T07:11:02.028Z,100113.19
2023-09-10T07:12:04.476Z,100129.41
2023-09-10T07:13:07.533Z,100136.28
2023-09-10T07:14:09.713Z,100115.75
2023-09-10T07:15:11.500Z,100118.88
2023-09-10T07:16:13.664Z,100117.50
2023-09-10T07:17:15.666Z,100115.31
2023-09-10T07:18:17.579Z,100120.28
2023-09-10T07:19:19.460Z,100106.44
2023-09-10T07:20:21.377Z,100121.28
2023-09-10T07:21:23.238Z,100115.03
2023-09-10T07:22:25.340Z,100118.16
2023-09-10T07:23:28.101Z,100117.84
2023-09-10T07:24:30.066Z,100110.31
2023-09-10T07:25:31.932Z,100118.66
2023-09-10T07:26:40.551Z,100122.56
2023-09-10T07:27:42.531Z,100105.47
2023-09-10T07:28:44.408Z,100108.78
2023-09-10T07:29:46.259Z,100114.94
2023-09-10T07:30:48.155Z,100118.25
2023-09-10T07:31:50.204Z,100120.94
2023-09-10T07:32:52.114Z,100120.63
2023-09-10T07:33:53.990Z,100113.94
2023-09-10T07:34:56.020Z,100113.28
2023-09-10T07:35:57.830Z,100118.88
2023-09-10T07:36:59.672Z,100115.91
2023-09-10T07:38:01.522Z,100116.56
2023-09-10T07:39:03.480Z,100114.59
2023-09-10T07:40:05.739Z,100117.41
2023-09-10T07:41:07.640Z,100111.13
2023-09-10T07:42:09.510Z,100110.88
2023-09-10T07:43:11.539Z,100106.97
2023-09-10T07:44:13.580Z,100106.72
2023-09-10T07:45:15.738Z,100110.41
2023-09-10T07:46:17.705Z,100105.72
2023-09-10T07:47:19.568Z,100123.06
2023-09-10T07:48:21.449Z,100117.81
2023-09-10T07:49:23.305Z,100115.34
2023-09-10T07:50:25.224Z,100102.75
2023-09-10T07:51:27.506Z,100118.75
2023-09-10T07:52:29.425Z,100110.69
2023-09-10T07:53:31.293Z,100110.88
2023-09-10T07:54:37.061Z,100099.56
2023-09-10T07:55:38.921Z,100125.91
2023-09-10T07:56:40.964Z,100106.56
2023-09-10T07:57:43.060Z,100106.22
2023-09-10T07:58:45.299Z,100108.44
2023-09-10T07:59:47.259Z,100092.38
2023-09-10T08:00:49.328Z,100116.13
2023-09-10T08:01:51.186Z,100110.28
2023-09-10T08:02:53.040Z,100107.94
2023-09-10T08:03:55.261Z,100103.56
2023-09-10T08:04:57.285Z,100099.28
2023-09-10T08:06:00.508Z,100086.91
2023-09-10T08:07:05.067Z,100078.84
2023-09-10T08:08:07.522Z,100109.13
2023-09-10T08:09:09.722Z,100106.00
2023-09-10T08:10:11.628Z,100102.34
2023-09-10T08:11:13.630Z,100099.28
2023-09-10T08:12:15.699Z,100109.34
2023-09-10T08:13:17.838Z,100102.69
2023-09-10T08:14:19.726Z,100098.59
2023-09-10T08:15:21.581Z,100098.75
2023-09-10T08:16:23.545Z,100107.09
2023-09-10T08:17:25.662Z,100106.44
2023-09-10T08:18:27.730Z,100085.94
2023-09-10T08:19:29.600Z,100098.59
2023-09-10T08:20:31.751Z,100105.13
2023-09-10T08:21:33.578Z,100103.88
2023-09-10T08:22:35.547Z,100097.31
2023-09-10T08:23:37.436Z,100108.13
2023-09-10T08:24:39.264Z,100092.47
2023-09-10T08:25:41.554Z,100102.78
2023-09-10T08:26:43.357Z,100101.66
2023-09-10T08:27:45.229Z,100102.31
2023-09-10T08:28:47.266Z,100103.75
2023-09-10T08:29:49.126Z,100098.75
2023-09-10T08:30:51.293Z,100102.09
2023-09-10T08:31:53.192Z,100095.00
2023-09-10T08:32:55.236Z,100096.47
2023-09-10T08:33:57.079Z,100103.84
2023-09-10T08:34:58.885Z,100096.47
2023-09-10T08:36:00.674Z,100103.09
2023-09-10T08:37:07.164Z,100096.13
2023-09-10T08:38:09.064Z,100097.44
2023-09-10T08:39:11.144Z,100096.84
2023-09-10T08:40:13.669Z,100094.75
2023-09-10T08:41:27.994Z,100106.50
2023-09-10T08:42:57.096Z,100097.22
2023-09-10T08:43:59.874Z,100107.97
2023-09-10T08:45:06.386Z,100108.22
2023-09-10T08:46:11.857Z,100106.03
2023-09-10T08:47:18.508Z,100105.88
2023-09-10T08:48:21.299Z,100097.75
2023-09-10T08:49:25.130Z,100099.19
2023-09-10T08:50:27.256Z,100105.09
2023-09-10T08:51:31.079Z,100109.28
2023-09-10T08:52:34.214Z,100105.66
2023-09-10T08:53:38.222Z,100104.28
2023-09-10T08:54:40.132Z,100103.84
2023-09-10T08:55:47.652Z,100104.09
2023-09-10T08:56:50.827Z,100113.25
2023-09-10T08:57:55.612Z,100097.81
2023-09-10T08:58:59.024Z,100106.03
2023-09-10T09:00:02.069Z,100106.88
2023-09-10T09:01:07.785Z,100096.34
2023-09-10T09:02:10.978Z,100100.38
2023-09-10T09:03:13.690Z,100098.19
2023-09-10T09:04:17.078Z,100092.44
2023-09-10T09:05:19.042Z,100092.91
2023-09-10T09:06:21.990Z,100088.13
2023-09-10T09:07:31.095Z,100087.38
2023-09-10T09:08:35.145Z,100095.34
2023-09-10T09:09:42.714Z,100101.81
2023-09-10T09:10:45.840Z,100093.00
2023-09-10T09:11:49.632Z,100085.91
2023-09-10T09:12:54.918Z,100109.47
2023-09-10T09:13:58.258Z,100096.22
2023-09-10T09:15:02.554Z,100104.31
2023-09-10T09:16:06.321Z,100100.13
2023-09-10T09:17:08.552Z,100097.66
2023-09-10T09:18:14.789Z,100101.31
2023-09-10T09:19:18.824Z,100106.59
2023-09-10T09:20:21.164Z,100107.56
2023-09-10T09:21:25.817Z,100102.59
2023-09-10T09:22:31.007Z,100102.59
2023-09-10T09:23:58.669Z,100085.44
2023-09-10T09:25:01.470Z,100093.53
2023-09-10T09:26:03.526Z,100106.25
2023-09-10T09:27:06.136Z,100097.69
2023-09-10T09:28:11.579Z,100100.28
2023-09-10T09:29:13.975Z,100102.59
2023-09-10T09:30:16.044Z,100095.50
2023-09-10T09:31:21.378Z,100093.03
2023-09-10T09:32:23.736Z,100089.84
2023-09-10T09:33:25.742Z,100097.47
2023-09-10T09:34:27.786Z,100097.22
2023-09-10T09:35:29.629Z,100087.28
2023-09-10T09:36:33.896Z,100097.97
2023-09-10T09:37:36.678Z,100078.84
2023-09-10T09:38:46.694Z,100092.66
2023-09-10T09:39:51.051Z,100081.88
2023-09-10T09:40:54.323Z,100085.41
2023-09-10T09:41:56.297Z,100091.03
2023-09-10T09:43:13.119Z,100093.47
2023-09-10T09:44:20.656Z,100087.34
2023-09-10T09:45:22.782Z,100077.31
2023-09-10T09:46:32.860Z,100098.13
2023-09-10T09:47:35.157Z,100096.28
2023-09-10T09:48:38.739Z,100071.16
2023-09-10T09:49:46.689Z,100102.53
2023-09-10T09:50:49.010Z,100096.66
2023-09-10T09:51:51.364Z,100096.91
2023-09-10T09:52:53.938Z,100096.47
2023-09-10T09:53:56.225Z,100093.03
2023-09-10T09:54:58.156Z,100095.25
2023-09-10T09:56:05.684Z,100096.44
2023-09-10T09:57:08.195Z,100094.75
2023-09-10T09:58:10.301Z,100092.38
2023-09-10T09:59:12.209Z,100088.25
2023-09-10T10:00:14.611Z,100096.56
2023-09-10T10:01:16.489Z,100100.88
2023-09-10T10:02:19.629Z,100099.63
2023-09-10T10:03:21.764Z,100098.53
2023-09-10T10:04:24.607Z,100096.44
2023-09-10T10:05:26.508Z,100094.47
2023-09-10T10:06:30.073Z,100087.06
2023-09-10T10:08:49.796Z,100093.47
2023-09-10T10:09:51.844Z,100079.50
2023-09-10T10:10:53.851Z,100090.75
2023-09-10T10:11:55.688Z,100088.16
2023-09-10T10:12:58.559Z,100087.56
2023-09-10T10:14:01.699Z,100089.78
2023-09-10T10:15:04.226Z,100092.03
2023-09-10T10:16:07.241Z,100100.13
2023-09-10T10:17:09.833Z,100092.03
2023-09-10T10:18:12.130Z,100092.78
2023-09-10T10:19:15.359Z,100090.34
2023-09-10T10:20:18.435Z,100093.38
2023-09-10T10:21:22.700Z,100083.69
2023-09-10T10:22:25.067Z,100105.03
2023-09-10T10:23:27.974Z,100075.88
2023-09-10T10:24:30.770Z,100084.94
2023-09-10T10:25:33.451Z,100085.94
2023-09-10T10:26:35.443Z,100088.38
2023-09-10T10:27:38.098Z,100083.47
2023-09-10T10:28:40.564Z,100075.41
2023-09-10T10:29:42.528Z,100086.78
2023-09-10T10:30:50.854Z,100087.41
2023-09-10T10:32:27.465Z,100079.53
2023-09-10T10:33:30.839Z,100085.91
2023-09-10T10:34:39.123Z,100075.34
2023-09-10T10:35:45.536Z,100085.06
2023-09-10T10:37:09.258Z,100090.84
2023-09-10T10:38:16.493Z,100084.69
2023-09-10T10:39:28.019Z,100084.94
2023-09-10T10:40:36.684Z,100084.53
2023-09-10T10:41:46.021Z,100078.41
2023-09-10T10:42:56.055Z,100082.69
2023-09-10T10:44:00.924Z,100087.00
2023-09-10T10:45:10.993Z,100078.03
2023-09-10T10:46:13.257Z,100075.00
2023-09-10T10:47:20.124Z,100086.41
2023-09-10T10:48:26.915Z,100076.97
2023-09-10T10:49:31.782Z,100092.03
2023-09-10T10:50:37.022Z,100084.69
2023-09-10T10:51:54.953Z,100084.72
2023-09-10T10:53:21.317Z,100077.13
2023-09-10T10:54:23.755Z,100074.38
2023-09-10T10:55:27.252Z,100074.38
2023-09-10T10:56:29.302Z,100082.44
2023-09-10T10:57:32.253Z,100079.00
2023-09-10T10:58:38.767Z,100076.44
2023-09-10T10:59:41.624Z,100081.13
2023-09-10T11:00:43.635Z,100078.09
2023-09-10T11:02:10.179Z,100078.94
2023-09-10T11:03:15.047Z,100076.34
2023-09-10T11:04:20.449Z,100081.00
2023-09-10T11:05:22.477Z,100065.56
2023-09-10T11:06:24.507Z,100066.16
2023-09-10T11:07:28.103Z,100066.50
2023-09-10T11:08:44.027Z,100069.91
2023-09-10T11:09:47.539Z,100073.59
2023-09-10T11:10:49.389Z,100074.84
2023-09-10T11:11:51.556Z,100075.09
2023-09-10T11:13:11.397Z,100069.38
2023-09-10T11:14:13.352Z,100070.63
2023-09-10T11:15:15.268Z,100068.53
2023-09-10T11:16:18.320Z,100082.03
2023-09-10T11:17:25.729Z,100081.13
2023-09-10T11:18:37.383Z,100077.94
2023-09-10T11:19:47.123Z,100083.97
2023-09-10T11:20:51.685Z,100072.22
2023-09-10T11:21:56.564Z,100081.25
2023-09-10T11:23:06.955Z,100072.31
2023-09-10T11:24:14.991Z,100064.91
2023-09-10T11:25:16.781Z,100071.13
2023-09-10T11:26:18.691Z,100067.44
2023-09-10T11:27:24.440Z,100066.97
2023-09-10T11:28:45.962Z,100069.94
2023-09-10T11:30:05.111Z,100075.09
2023-09-10T11:31:47.954Z,100071.47
2023-09-10T11:32:53.935Z,100063.88
2023-09-10T11:34:00.332Z,100073.44
2023-09-10T11:35:20.412Z,100076.38
2023-09-10T11:36:25.272Z,100065.59
2023-09-10T11:37:27.393Z,100060.72
2023-09-10T11:38:31.493Z,100072.59
2023-09-10T11:39:35.634Z,100078.94
2023-09-10T11:40:38.503Z,100068.53
2023-09-10T11:41:40.461Z,100070.72
2023-09-10T11:42:49.887Z,100077.56
2023-09-10T11:43:52.040Z,100081.84
2023-09-10T11:44:56.827Z,100071.63
2023-09-10T11:45:58.804Z,100058.16
2023-09-10T11:47:00.752Z,100078.25
2023-09-10T11:48:02.968Z,100068.81
2023-09-10T11:49:05.375Z,100072.72
2023-09-10T11:50:10.333Z,100078.13
2023-09-10T11:51:12.244Z,100083.94
2023-09-10T11:52:14.115Z,100084.09
2023-09-10T11:53:16.114Z,100077.84
2023-09-10T11:54:19.090Z,100081.91
2023-09-10T11:55:21.380Z,100088.88
2023-09-10T11:56:23.307Z,100083.72
2023-09-10T11:57:25.274Z,100077.13
2023-09-10T11:58:27.580Z,100075.38
2023-09-10T11:59:31.951Z,100078.59
2023-09-10T12:00:34.198Z,100072.22
2023-09-10T12:01:36.929Z,100071.22
2023-09-10T12:02:38.852Z,100066.91
2023-09-10T12:03:45.798Z,100066.41
2023-09-10T12:04:48.418Z,100055.00
2023-09-10T12:05:50.492Z,100080.25
2023-09-10T12:06:52.264Z,100065.03
2023-09-10T12:07:54.174Z,100076.34